Time;durP1;ratioP1;P1;durP2;ratioP2;P2;SDS_P1;SDS_P2;PMS_P1;PMS_P2;Temp;Humidity;BMP_temperature;BMP_pressure;BME280_temperature;BME280_humidity;BME280_pressure;Samples;Min_cycle;Max_cycle;Signal;HPM_P1;HPM_P2
2022/07/24 00:00:40;;;;;;;2.37;1.80;;;13.10;99.90;;;;;;5006067;28;20545;-53
2022/07/24 00:03:08;;;;;;;2.10;1.93;;;13.10;99.90;;;;;;4999958;28;20510;-53
2022/07/24 00:05:35;;;;;;;3.00;2.13;;;13.00;99.90;;;;;;5000533;28;20881;-53
2022/07/24 00:08:02;;;;;;;3.13;2.40;;;13.00;99.90;;;;;;4999224;28;20483;-53
2022/07/24 00:10:28;;;;;;;1.83;1.73;;;13.10;99.90;;;;;;5003110;28;20604;-53
2022/07/24 00:12:55;;;;;;;2.37;2.27;;;13.00;99.90;;;;;;5004748;28;20908;-52
2022/07/24 00:15:21;;;;;;;1.80;1.70;;;13.00;99.90;;;;;;5005789;28;20460;-54
2022/07/24 00:17:48;;;;;;;2.00;1.90;;;12.90;99.90;;;;;;5005405;28;20503;-52
2022/07/24 00:20:16;;;;;;;2.03;1.93;;;12.80;99.90;;;;;;5005194;28;20514;-53
2022/07/24 00:22:43;;;;;;;2.10;2.00;;;12.70;99.90;;;;;;5003405;28;20528;-52
2022/07/24 00:25:09;;;;;;;3.37;2.77;;;12.70;99.90;;;;;;5011203;28;20456;-52
2022/07/24 00:27:36;;;;;;;2.60;2.40;;;12.70;99.90;;;;;;5006944;28;20467;-53
2022/07/24 00:30:03;;;;;;;3.10;2.50;;;12.80;99.90;;;;;;5010911;28;20565;-52
2022/07/24 00:32:30;;;;;;;3.97;2.47;;;12.70;99.90;;;;;;5009788;28;20487;-53
2022/07/24 00:34:57;;;;;;;1.93;1.83;;;12.70;99.90;;;;;;5009661;28;20494;-51
2022/07/24 00:37:25;;;;;;;3.77;2.00;;;12.60;99.90;;;;;;5004175;28;21220;-51
2022/07/24 00:39:51;;;;;;;1.97;1.87;;;12.60;99.90;;;;;;5005920;28;20539;-51
2022/07/24 00:42:18;;;;;;;2.67;2.20;;;12.60;99.90;;;;;;5006536;28;20483;-51
2022/07/24 00:44:44;;;;;;;2.13;1.97;;;12.60;99.90;;;;;;5006524;28;20460;-52
2022/07/24 00:47:11;;;;;;;2.00;1.90;;;12.50;99.90;;;;;;5004134;28;20495;-51
2022/07/24 00:49:38;;;;;;;2.40;2.20;;;12.50;99.90;;;;;;5007529;28;20507;-51
2022/07/24 00:52:05;;;;;;;2.23;2.03;;;12.50;99.90;;;;;;5005595;28;20479;-51
2022/07/24 00:54:32;;;;;;;1.80;1.70;;;12.50;99.90;;;;;;5009328;28;20468;-51
2022/07/24 00:56:59;;;;;;;2.30;2.10;;;12.50;99.90;;;;;;5005905;28;20981;-53
2022/07/24 00:59:26;;;;;;;2.80;2.43;;;12.50;99.90;;;;;;5009746;28;20587;-51
2022/07/24 01:01:53;;;;;;;2.27;2.07;;;12.40;99.90;;;;;;5006897;28;20460;-53
2022/07/24 01:04:20;;;;;;;2.60;2.40;;;12.40;99.90;;;;;;5010397;28;20471;-53
2022/07/24 01:06:48;;;;;;;2.47;2.30;;;12.40;99.90;;;;;;5007535;28;20464;-52
2022/07/24 01:09:15;;;;;;;7.23;2.20;;;12.30;99.90;;;;;;5001211;28;20593;-52
2022/07/24 01:11:43;;;;;;;3.43;2.07;;;12.30;99.90;;;;;;5007462;28;21068;-52
2022/07/24 01:14:11;;;;;;;2.37;2.17;;;12.30;99.90;;;;;;5008410;28;20549;-52
2022/07/24 01:16:38;;;;;;;2.67;2.47;;;12.20;99.90;;;;;;5009711;28;20471;-50
2022/07/24 01:19:05;;;;;;;3.00;2.13;;;12.20;99.90;;;;;;5005542;28;21283;-51
2022/07/24 01:21:33;;;;;;;2.90;1.97;;;12.20;99.90;;;;;;5006211;28;20901;-51
2022/07/24 01:24:00;;;;;;;4.10;2.03;;;12.20;99.90;;;;;;5005214;28;20518;-50
2022/07/24 01:26:27;;;;;;;2.20;2.10;;;12.20;99.90;;;;;;5007705;28;20538;-50
2022/07/24 01:28:53;;;;;;;2.73;2.23;;;12.20;99.90;;;;;;5005619;28;20484;-52
2022/07/24 01:31:20;;;;;;;7.00;2.13;;;12.20;99.90;;;;;;5008649;28;20514;-52
2022/07/24 01:33:47;;;;;;;2.40;1.77;;;12.10;99.90;;;;;;5005239;28;20843;-50
2022/07/24 01:36:13;;;;;;;2.10;1.90;;;12.10;99.90;;;;;;5009056;28;20461;-51
2022/07/24 01:38:41;;;;;;;1.93;1.80;;;12.10;99.90;;;;;;4999540;28;20518;-53
2022/07/24 01:41:08;;;;;;;2.60;2.30;;;12.10;99.90;;;;;;5007400;28;20513;-51
2022/07/24 01:43:35;;;;;;;3.10;2.03;;;12.00;98.30;;;;;;5010913;28;20552;-51
2022/07/24 01:46:01;;;;;;;2.40;2.30;;;11.90;99.90;;;;;;5000587;28;20455;-51
2022/07/24 01:48:28;;;;;;;2.10;2.00;;;11.80;91.30;;;;;;5005282;28;20465;-51
2022/07/24 01:50:55;;;;;;;1.90;1.80;;;11.90;92.20;;;;;;5003927;28;20523;-49
2022/07/24 01:53:21;;;;;;;2.07;1.87;;;11.80;99.40;;;;;;5004431;28;20488;-50
2022/07/24 01:55:52;;;;;;;1.93;1.70;;;11.80;93.40;;;;;;5005387;28;20499;-50
2022/07/24 01:58:19;;;;;;;2.40;2.20;;;11.80;91.70;;;;;;5006784;28;20465;-52
2022/07/24 02:00:47;;;;;;;2.40;2.20;;;11.70;78.90;;;;;;5006257;28;20479;-53
2022/07/24 02:03:13;;;;;;;2.73;2.07;;;11.70;88.10;;;;;;5002147;28;20519;-51
2022/07/24 02:05:41;;;;;;;1.93;1.77;;;11.80;82.70;;;;;;5001211;28;20455;-52
2022/07/24 02:08:09;;;;;;;2.23;1.67;;;11.80;85.30;;;;;;5008018;28;20465;-49
2022/07/24 02:10:36;;;;;;;2.37;2.17;;;11.70;89.90;;;;;;5006493;28;20488;-49
2022/07/24 02:13:04;;;;;;;3.73;1.60;;;11.70;82.60;;;;;;5010944;28;20483;-50
2022/07/24 02:15:30;;;;;;;2.03;1.93;;;11.70;85.30;;;;;;5006532;28;20459;-50
2022/07/24 02:17:59;;;;;;;2.43;2.17;;;11.70;85.80;;;;;;5005946;28;20982;-52
2022/07/24 02:20:26;;;;;;;1.87;1.77;;;11.60;83.60;;;;;;5007146;28;20487;-51
2022/07/24 02:22:53;;;;;;;2.40;2.30;;;11.60;83.60;;;;;;5005965;28;20513;-50
2022/07/24 02:25:19;;;;;;;2.30;2.10;;;11.70;86.00;;;;;;5000994;28;20460;-51
2022/07/24 02:27:47;;;;;;;2.90;2.37;;;11.60;83.60;;;;;;5006812;28;20465;-50
2022/07/24 02:30:17;;;;;;;1.80;1.70;;;11.60;84.80;;;;;;5007708;28;20479;-49
2022/07/24 02:32:44;;;;;;;2.20;1.80;;;11.50;87.60;;;;;;5001211;28;20487;-53
2022/07/24 02:35:12;;;;;;;10.00;2.10;;;11.50;83.40;;;;;;5009233;28;20537;-51
2022/07/24 02:37:39;;;;;;;1.70;1.60;;;11.40;78.60;;;;;;5011825;28;20467;-51
2022/07/24 02:40:08;;;;;;;1.97;1.87;;;11.50;85.60;;;;;;5007590;28;20495;-49
2022/07/24 02:42:35;;;;;;;2.07;1.97;;;11.50;74.50;;;;;;5009262;28;20965;-52
2022/07/24 02:45:02;;;;;;;2.40;1.73;;;11.40;86.70;;;;;;5007987;28;20468;-51
2022/07/24 02:47:30;;;;;;;2.00;1.90;;;11.40;87.10;;;;;;5006719;28;20522;-50
2022/07/24 02:49:57;;;;;;;2.67;1.70;;;11.40;87.60;;;;;;5007427;28;20476;-50
2022/07/24 02:52:24;;;;;;;2.10;1.90;;;11.40;79.70;;;;;;5009205;28;21243;-52
2022/07/24 02:54:50;;;;;;;2.07;1.77;;;11.40;76.70;;;;;;5002955;28;20529;-50
2022/07/24 02:57:17;;;;;;;1.80;1.70;;;11.40;90.00;;;;;;5010624;28;20464;-52
2022/07/24 02:59:49;;;;;;;2.40;2.07;;;11.30;91.60;;;;;;5011830;28;21075;-52
2022/07/24 03:02:16;;;;;;;2.43;2.20;;;11.30;79.60;;;;;;5004569;28;20498;-50
2022/07/24 03:04:44;;;;;;;2.83;1.70;;;11.30;78.80;;;;;;5009479;28;20475;-51
2022/07/24 03:07:11;;;;;;;4.40;1.53;;;11.30;79.40;;;;;;5006493;28;20490;-50
2022/07/24 03:09:37;;;;;;;2.20;2.10;;;11.20;81.60;;;;;;5005509;28;20535;-52
2022/07/24 03:12:04;;;;;;;1.60;1.60;;;11.20;74.50;;;;;;5007360;28;20821;-52
2022/07/24 03:14:31;;;;;;;1.80;1.70;;;11.20;77.50;;;;;;5012133;28;20526;-51
2022/07/24 03:16:58;;;;;;;2.00;1.90;;;11.30;79.60;;;;;;5008217;28;20499;-52
2022/07/24 03:19:24;;;;;;;2.03;1.90;;;11.30;78.40;;;;;;5010382;28;20549;-52
2022/07/24 03:21:52;;;;;;;1.67;1.57;;;11.30;82.40;;;;;;5002428;28;20468;-49
2022/07/24 03:24:19;;;;;;;2.23;1.47;;;11.20;85.30;;;;;;5005370;28;20522;-51
2022/07/24 03:26:45;;;;;;;4.40;1.70;;;11.10;83.60;;;;;;5003621;28;20495;-50
2022/07/24 03:29:12;;;;;;;2.40;2.00;;;11.10;75.60;;;;;;5008831;28;21040;-50
2022/07/24 03:31:39;;;;;;;4.30;1.73;;;11.20;77.80;;;;;;5007064;28;20464;-53
2022/07/24 03:34:06;;;;;;;2.03;1.93;;;11.20;77.60;;;;;;5005405;28;20456;-51
2022/07/24 03:36:32;;;;;;;2.33;2.23;;;11.20;82.40;;;;;;5002745;28;20543;-52
2022/07/24 03:39:00;;;;;;;2.60;2.30;;;11.20;82.70;;;;;;5007849;28;20557;-52
2022/07/24 03:41:27;;;;;;;2.07;1.97;;;11.20;82.80;;;;;;5006424;28;21011;-51
2022/07/24 03:43:54;;;;;;;2.23;2.00;;;11.20;78.90;;;;;;5002072;28;20479;-52
2022/07/24 03:46:20;;;;;;;2.30;2.10;;;11.20;83.10;;;;;;5010456;28;20459;-52
2022/07/24 03:48:47;;;;;;;2.17;1.97;;;11.10;78.30;;;;;;5011198;28;20483;-51
2022/07/24 03:51:14;;;;;;;5.97;2.43;;;11.10;76.30;;;;;;5008831;28;20613;-51
2022/07/24 03:53:40;;;;;;;2.10;2.00;;;11.10;79.50;;;;;;5004304;28;21088;-53
2022/07/24 03:56:10;;;;;;;3.97;2.70;;;11.10;70.90;;;;;;5008040;28;20549;-50
2022/07/24 03:58:37;;;;;;;2.27;2.17;;;11.20;74.90;;;;;;5004414;28;20517;-51
2022/07/24 04:01:03;;;;;;;7.50;2.33;;;11.20;71.60;;;;;;5010069;28;20459;-51
2022/07/24 04:03:30;;;;;;;5.53;1.80;;;11.20;70.30;;;;;;5008156;28;21551;-53
2022/07/24 04:05:57;;;;;;;3.23;1.70;;;11.30;73.00;;;;;;5008008;28;20463;-52
2022/07/24 04:08:23;;;;;;;1.87;1.77;;;11.40;81.30;;;;;;5005977;28;20503;-52
2022/07/24 04:10:56;;;;;;;2.03;1.93;;;11.40;80.50;;;;;;5007874;28;20507;-51
2022/07/24 04:13:24;;;;;;;3.60;1.83;;;11.50;77.20;;;;;;5002612;28;20475;-52
2022/07/24 04:15:50;;;;;;;1.90;1.70;;;11.50;77.40;;;;;;5005238;28;20463;-52
2022/07/24 04:18:17;;;;;;;2.00;1.50;;;11.50;77.40;;;;;;5006721;28;20459;-53
2022/07/24 04:20:44;;;;;;;3.40;2.00;;;11.60;83.20;;;;;;5006497;28;20466;-52
2022/07/24 04:23:10;;;;;;;2.10;1.90;;;11.60;84.90;;;;;;5005895;28;20483;-53
2022/07/24 04:25:37;;;;;;;4.00;1.67;;;11.70;84.00;;;;;;5007943;28;20483;-51
2022/07/24 04:28:04;;;;;;;1.47;1.37;;;11.80;82.20;;;;;;5005812;28;20496;-51
2022/07/24 04:30:32;;;;;;;6.57;2.00;;;11.80;83.40;;;;;;5007119;28;20541;-52
2022/07/24 04:32:59;;;;;;;6.57;1.60;;;11.90;86.70;;;;;;5006306;28;20476;-52
2022/07/24 04:35:26;;;;;;;1.53;1.23;;;11.90;88.60;;;;;;5005667;28;20506;-52
2022/07/24 04:37:52;;;;;;;2.00;1.60;;;12.10;91.50;;;;;;5007709;28;20487;-52
2022/07/24 04:40:19;;;;;;;1.47;1.37;;;12.10;93.80;;;;;;5005216;28;20589;-51
2022/07/24 04:42:46;;;;;;;7.70;2.27;;;12.20;96.60;;;;;;5002089;28;20484;-51
2022/07/24 04:45:13;;;;;;;1.93;1.70;;;12.30;99.10;;;;;;5003986;28;20484;-52
2022/07/24 04:47:41;;;;;;;1.97;1.33;;;12.30;99.90;;;;;;5005524;28;20471;-52
2022/07/24 04:50:08;;;;;;;1.87;1.50;;;12.40;99.90;;;;;;5004444;28;22063;-52
2022/07/24 04:52:35;;;;;;;2.10;1.53;;;12.50;99.90;;;;;;5009082;28;20549;-52
2022/07/24 04:55:02;;;;;;;1.97;1.80;;;12.50;99.90;;;;;;5009179;28;20544;-52
2022/07/24 04:57:28;;;;;;;2.40;2.00;;;12.60;99.90;;;;;;5007234;28;20817;-51
2022/07/24 04:59:55;;;;;;;1.40;1.40;;;12.70;99.90;;;;;;5007257;28;20565;-51
2022/07/24 05:02:21;;;;;;;1.87;1.60;;;12.80;99.90;;;;;;5008718;28;21021;-51
2022/07/24 05:04:49;;;;;;;2.70;1.60;;;12.80;99.90;;;;;;5006924;28;20573;-51
2022/07/24 05:07:16;;;;;;;2.13;1.93;;;12.90;99.90;;;;;;5000262;28;21239;-53
2022/07/24 05:09:43;;;;;;;2.00;1.77;;;13.00;99.90;;;;;;5003462;28;20515;-52
2022/07/24 05:12:09;;;;;;;4.53;2.07;;;13.10;99.90;;;;;;5001999;28;20518;-53
2022/07/24 05:14:36;;;;;;;2.33;2.13;;;13.20;99.90;;;;;;5002859;28;20484;-53
2022/07/24 05:17:03;;;;;;;2.00;1.90;;;13.30;99.90;;;;;;5003963;28;21254;-51
2022/07/24 05:19:29;;;;;;;1.90;1.73;;;13.30;99.90;;;;;;5001475;28;20951;-53
2022/07/24 05:21:57;;;;;;;1.70;1.60;;;13.40;99.90;;;;;;5004545;28;20459;-52
2022/07/24 05:24:24;;;;;;;1.97;1.73;;;13.50;99.90;;;;;;5002168;28;20487;-52
2022/07/24 05:26:51;;;;;;;2.73;1.93;;;13.60;99.90;;;;;;5006460;28;20830;-52
2022/07/24 05:29:18;;;;;;;3.03;1.50;;;13.60;99.90;;;;;;5000544;28;20903;-52
2022/07/24 05:31:46;;;;;;;1.80;1.70;;;13.70;99.90;;;;;;5001776;28;20545;-51
2022/07/24 05:34:12;;;;;;;10.57;1.60;;;13.80;99.90;;;;;;5000159;28;20841;-51
2022/07/24 05:36:39;;;;;;;2.30;1.50;;;13.90;99.90;;;;;;5005897;28;20557;-52
2022/07/24 05:39:07;;;;;;;1.70;1.60;;;14.00;99.90;;;;;;5001457;28;20938;-53
2022/07/24 05:41:34;;;;;;;2.43;1.63;;;14.00;99.90;;;;;;5003675;28;20522;-52
2022/07/24 05:44:01;;;;;;;4.40;1.43;;;14.10;99.90;;;;;;5002355;28;20601;-52
2022/07/24 05:46:27;;;;;;;2.50;1.93;;;14.20;99.90;;;;;;5002463;28;20488;-52
2022/07/24 05:48:54;;;;;;;4.00;1.50;;;14.20;99.90;;;;;;5004132;28;21048;-52
2022/07/24 05:51:20;;;;;;;1.43;1.30;;;14.30;99.90;;;;;;5006052;28;20492;-51
2022/07/24 05:53:47;;;;;;;2.30;1.43;;;14.40;99.90;;;;;;5009261;28;20567;-52
2022/07/24 05:56:15;;;;;;;2.30;1.67;;;14.40;99.90;;;;;;5004563;28;20498;-53
2022/07/24 05:58:42;;;;;;;2.30;2.00;;;14.50;99.90;;;;;;5003643;28;20490;-52
2022/07/24 06:01:08;;;;;;;2.60;2.00;;;14.50;99.90;;;;;;5000623;28;20504;-52
2022/07/24 06:03:36;;;;;;;2.50;1.70;;;14.60;99.90;;;;;;5003137;28;20495;-52
2022/07/24 06:06:04;;;;;;;7.17;2.10;;;14.70;99.90;;;;;;5003674;28;20464;-52
2022/07/24 06:08:30;;;;;;;2.00;1.90;;;14.70;99.90;;;;;;5005005;28;20468;-52
2022/07/24 06:10:57;;;;;;;4.20;1.80;;;14.80;99.90;;;;;;5003387;28;20541;-51
2022/07/24 06:13:25;;;;;;;2.13;1.90;;;14.90;99.90;;;;;;5004623;28;20589;-52
2022/07/24 06:15:51;;;;;;;3.00;2.17;;;15.00;99.90;;;;;;5002874;28;20547;-52
2022/07/24 06:18:18;;;;;;;4.37;2.73;;;15.10;99.90;;;;;;5004943;28;20553;-52
2022/07/24 06:20:45;;;;;;;2.50;2.30;;;15.20;99.90;;;;;;5003224;28;20510;-51
2022/07/24 06:23:11;;;;;;;3.40;2.03;;;15.30;99.90;;;;;;5002482;28;20460;-52
2022/07/24 06:25:38;;;;;;;3.10;2.00;;;15.30;99.90;;;;;;5004354;28;20459;-52
2022/07/24 06:28:05;;;;;;;7.70;2.40;;;15.40;99.90;;;;;;5002699;28;21053;-52
2022/07/24 06:30:33;;;;;;;1.27;1.27;;;15.50;99.90;;;;;;4998026;28;20519;-52
2022/07/24 06:33:00;;;;;;;1.30;1.10;;;15.50;99.90;;;;;;5000754;28;20543;-52
2022/07/24 06:35:28;;;;;;;0.97;0.97;;;15.60;99.90;;;;;;5002762;28;20550;-52
2022/07/24 06:37:55;;;;;;;2.13;1.10;;;15.70;84.80;;;;;;5003570;28;20463;-52
2022/07/24 06:40:22;;;;;;;3.23;1.43;;;15.80;25.20;;;;;;5001141;28;20960;-52
2022/07/24 06:42:49;;;;;;;1.40;1.30;;;15.90;27.50;;;;;;5001031;28;20496;-51
2022/07/24 06:45:16;;;;;;;2.80;1.17;;;15.90;29.50;;;;;;5000313;28;20463;-51
2022/07/24 06:47:44;;;;;;;1.47;1.37;;;16.00;28.60;;;;;;5006886;28;20496;-53
2022/07/24 06:50:12;;;;;;;1.37;1.23;;;16.00;30.30;;;;;;5000522;28;20573;-52
2022/07/24 06:52:39;;;;;;;3.50;1.90;;;16.10;30.80;;;;;;5003190;28;20455;-51
2022/07/24 06:55:07;;;;;;;4.10;1.30;;;16.30;26.40;;;;;;5000940;28;20483;-51
2022/07/24 06:57:34;;;;;;;4.10;1.67;;;16.50;32.00;;;;;;5002638;28;20918;-51
2022/07/24 07:00:01;;;;;;;1.13;1.10;;;16.60;47.90;;;;;;5002206;28;20562;-51
2022/07/24 07:02:28;;;;;;;1.43;1.33;;;16.60;54.20;;;;;;5001679;28;20914;-51
2022/07/24 07:04:56;;;;;;;5.60;1.70;;;16.70;54.10;;;;;;5001192;28;20495;-53
2022/07/24 07:07:24;;;;;;;1.13;1.13;;;16.80;56.70;;;;;;5001468;28;20491;-51
2022/07/24 07:09:50;;;;;;;8.93;1.80;;;16.90;59.60;;;;;;5001829;28;20586;-51
2022/07/24 07:12:17;;;;;;;1.60;1.20;;;17.00;64.50;;;;;;5000767;28;20985;-51
2022/07/24 07:14:46;;;;;;;2.07;1.13;;;17.10;71.30;;;;;;5003581;28;20499;-52
2022/07/24 07:17:13;;;;;;;2.10;1.00;;;17.20;72.10;;;;;;5002418;28;20469;-51
2022/07/24 07:19:39;;;;;;;2.00;1.20;;;17.20;73.10;;;;;;4998102;28;20593;-52
2022/07/24 07:22:07;;;;;;;8.53;1.30;;;17.30;76.20;;;;;;5005184;28;20491;-53
2022/07/24 07:24:34;;;;;;;6.00;1.30;;;17.40;76.80;;;;;;5006465;28;20487;-51
2022/07/24 07:27:00;;;;;;;2.33;1.03;;;17.50;82.50;;;;;;5003852;28;20491;-51
2022/07/24 07:29:27;;;;;;;4.93;1.37;;;17.60;81.50;;;;;;5008061;28;20511;-52
2022/07/24 07:31:54;;;;;;;1.90;1.80;;;17.70;81.40;;;;;;5005476;28;20459;-54
2022/07/24 07:34:20;;;;;;;1.67;1.10;;;17.80;93.90;;;;;;5006384;28;20514;-52
2022/07/24 07:36:47;;;;;;;1.80;1.10;;;17.80;94.10;;;;;;5008138;28;20569;-52
2022/07/24 07:39:15;;;;;;;2.30;1.60;;;17.80;95.00;;;;;;5007769;28;21090;-52
2022/07/24 07:41:42;;;;;;;1.30;1.30;;;17.90;93.80;;;;;;5002887;28;20497;-53
2022/07/24 07:44:08;;;;;;;2.30;1.10;;;18.00;97.40;;;;;;5005727;28;20534;-52
2022/07/24 07:46:35;;;;;;;1.17;1.07;;;18.10;99.90;;;;;;5003281;28;20525;-53
2022/07/24 07:49:01;;;;;;;2.33;1.50;;;18.10;98.90;;;;;;5004322;28;20484;-52
2022/07/24 07:51:28;;;;;;;7.87;2.03;;;18.20;99.90;;;;;;5005609;28;20587;-52
2022/07/24 07:53:55;;;;;;;2.20;1.40;;;18.30;99.90;;;;;;5005448;28;20593;-53
2022/07/24 07:56:23;;;;;;;1.00;1.00;;;18.40;99.90;;;;;;5000383;28;20557;-53
2022/07/24 07:58:50;;;;;;;4.47;1.23;;;18.50;99.90;;;;;;5003973;28;20488;-53
2022/07/24 08:01:16;;;;;;;7.40;1.10;;;18.50;99.90;;;;;;5002606;28;20465;-52
2022/07/24 08:03:43;;;;;;;5.37;1.43;;;18.60;99.90;;;;;;5004559;28;22203;-52
2022/07/24 08:06:10;;;;;;;1.93;1.53;;;18.70;99.90;;;;;;5003486;28;20459;-53
2022/07/24 08:08:36;;;;;;;1.57;1.33;;;18.80;99.90;;;;;;5006467;28;20549;-52
2022/07/24 08:11:03;;;;;;;5.10;0.90;;;18.90;99.90;;;;;;5003616;28;20538;-52
2022/07/24 08:13:31;;;;;;;2.70;1.40;;;19.00;99.90;;;;;;5002572;28;20510;-51
2022/07/24 08:15:58;;;;;;;0.90;0.90;;;19.00;99.90;;;;;;5000529;28;20541;-52
2022/07/24 08:18:24;;;;;;;1.33;1.17;;;19.00;99.90;;;;;;5005616;28;20867;-52
2022/07/24 08:20:51;;;;;;;1.33;1.30;;;19.10;99.90;;;;;;5004011;28;21005;-52
2022/07/24 08:23:18;;;;;;;1.00;0.90;;;19.20;99.90;;;;;;5001649;28;20474;-52
2022/07/24 08:25:44;;;;;;;2.33;1.40;;;19.40;99.90;;;;;;5000705;28;20491;-52
2022/07/24 08:28:11;;;;;;;2.60;0.90;;;19.50;99.90;;;;;;5006293;28;20543;-52
2022/07/24 08:30:39;;;;;;;1.77;0.90;;;19.60;99.90;;;;;;5000081;28;20520;-52
2022/07/24 08:33:05;;;;;;;1.47;1.10;;;19.60;99.90;;;;;;5004569;28;20898;-53
2022/07/24 08:35:32;;;;;;;0.83;0.83;;;19.70;99.90;;;;;;5003483;28;20569;-51
2022/07/24 08:37:59;;;;;;;4.00;1.10;;;19.80;99.90;;;;;;5003263;28;20570;-52
2022/07/24 08:40:26;;;;;;;1.20;1.03;;;19.80;99.90;;;;;;5004912;28;20491;-52
2022/07/24 08:42:53;;;;;;;1.10;1.10;;;19.90;99.90;;;;;;5002925;28;20503;-52
2022/07/24 08:45:19;;;;;;;0.97;0.97;;;20.00;99.90;;;;;;5007374;28;20554;-51
2022/07/24 08:47:49;;;;;;;2.50;1.83;;;20.00;99.90;;;;;;5002574;28;21047;-52
2022/07/24 08:50:16;;;;;;;3.30;0.97;;;20.10;99.90;;;;;;5003816;28;20541;-53
2022/07/24 08:52:44;;;;;;;1.83;1.00;;;20.20;99.90;;;;;;4995748;28;20490;-54
2022/07/24 08:55:11;;;;;;;5.83;1.20;;;20.30;99.90;;;;;;5000344;28;20476;-52
2022/07/24 08:57:37;;;;;;;1.77;1.20;;;20.40;99.90;;;;;;5006001;28;20495;-52
2022/07/24 09:00:05;;;;;;;0.80;0.73;;;20.30;99.90;;;;;;5006616;28;20966;-51
2022/07/24 09:02:33;;;;;;;1.43;0.87;;;20.50;99.90;;;;;;5007563;28;21020;-52
2022/07/24 09:05:02;;;;;;;1.17;1.17;;;20.70;99.90;;;;;;4999015;28;21278;-52
2022/07/24 09:07:30;;;;;;;0.93;0.93;;;20.80;99.90;;;;;;5002339;28;20574;-52
2022/07/24 09:10:01;;;;;;;1.27;1.03;;;21.00;99.90;;;;;;5001527;28;20842;-52
2022/07/24 09:12:32;;;;;;;2.90;1.30;;;21.40;99.90;;;;;;5001937;28;20506;-51
2022/07/24 09:15:00;;;;;;;0.90;0.90;;;22.20;99.90;;;;;;5000384;28;20566;-51
2022/07/24 09:17:27;;;;;;;2.27;1.20;;;22.70;99.90;;;;;;5004247;28;20470;-53
2022/07/24 09:19:56;;;;;;;3.60;1.17;;;22.60;99.90;;;;;;5004151;28;20515;-53
2022/07/24 09:22:43;;;;;;;2.63;1.20;;;22.80;99.90;;;;;;5000570;28;20542;-52
2022/07/24 09:25:12;;;;;;;1.90;1.30;;;22.70;99.90;;;;;;5003660;28;20905;-51
2022/07/24 09:27:41;;;;;;;0.90;0.90;;;22.60;99.90;;;;;;4999294;28;20467;-51
2022/07/24 09:30:09;;;;;;;1.20;1.10;;;22.30;99.90;;;;;;5000373;28;20492;-50
2022/07/24 09:32:36;;;;;;;1.60;1.10;;;22.40;99.90;;;;;;5002330;28;20459;-52
2022/07/24 09:35:04;;;;;;;0.97;0.97;;;22.70;99.90;;;;;;4998300;28;20492;-52
2022/07/24 09:37:32;;;;;;;2.00;1.20;;;22.90;99.90;;;;;;5002103;28;20460;-52
2022/07/24 09:40:09;;;;;;;1.50;1.03;;;22.80;99.90;;;;;;5001851;28;20549;-52
2022/07/24 09:42:39;;;;;;;1.20;1.10;;;22.70;99.90;;;;;;5000616;28;20467;-52
2022/07/24 09:45:10;;;;;;;1.67;1.17;;;22.80;99.90;;;;;;4996823;28;20538;-52
2022/07/24 09:47:37;;;;;;;1.23;1.13;;;22.80;99.90;;;;;;5005121;28;20502;-51
2022/07/24 09:50:16;;;;;;;1.17;0.87;;;22.90;99.90;;;;;;5004677;28;20515;-51
2022/07/24 09:52:44;;;;;;;0.93;0.87;;;22.90;99.90;;;;;;5000216;28;20502;-51
2022/07/24 09:55:23;;;;;;;0.90;0.80;;;22.90;99.90;;;;;;5001194;28;20534;-51
2022/07/24 09:57:50;;;;;;;1.27;1.17;;;23.00;99.90;;;;;;5006460;28;20452;-51
2022/07/24 10:00:18;;;;;;;3.13;1.30;;;23.10;99.90;;;;;;5016763;22;20530;-49
2022/07/24 10:02:46;;;;;;;0.87;0.87;;;23.10;99.90;;;;;;5007250;28;20472;-49
2022/07/24 10:05:15;;;;;;;3.33;0.87;;;23.10;99.90;;;;;;5003664;28;20455;-49
2022/07/24 10:07:44;;;;;;;3.27;0.90;;;23.20;99.90;;;;;;5005329;28;20467;-49
2022/07/24 10:10:12;;;;;;;6.63;0.90;;;23.20;99.90;;;;;;5005641;28;20487;-49
2022/07/24 10:12:40;;;;;;;0.80;0.80;;;23.40;99.90;;;;;;5010856;28;20459;-56
2022/07/24 10:15:08;;;;;;;1.13;1.13;;;23.40;99.90;;;;;;5011039;28;20983;-49
2022/07/24 10:18:01;;;;;;;1.33;0.80;;;23.30;99.90;;;;;;5015925;28;20486;-55
2022/07/24 10:20:37;;;;;;;1.67;0.93;;;23.30;99.90;;;;;;5001272;28;20491;-51
2022/07/24 10:23:06;;;;;;;1.77;1.27;;;23.40;99.90;;;;;;5006653;28;20525;-50
2022/07/24 10:25:51;;;;;;;2.20;0.63;;;23.50;99.90;;;;;;5002603;28;20456;-49
2022/07/24 10:28:39;;;;;;;3.03;0.90;;;23.60;99.90;;;;;;5008568;28;20455;-49
2022/07/24 10:31:08;;;;;;;1.43;1.33;;;23.70;99.90;;;;;;5002395;28;20479;-48
2022/07/24 10:33:37;;;;;;;1.57;0.93;;;23.80;99.90;;;;;;5003366;28;20491;-50
2022/07/24 10:36:13;;;;;;;2.70;0.90;;;23.70;99.90;;;;;;5004404;28;20486;-49
2022/07/24 10:38:42;;;;;;;1.53;0.93;;;23.80;99.90;;;;;;5005939;28;20506;-48
2022/07/24 10:41:14;;;;;;;2.57;1.40;;;23.70;99.90;;;;;;5003894;28;21062;-50
2022/07/24 10:44:12;;;;;;;0.70;0.70;;;23.80;99.90;;;;;;5006452;28;20455;-49
2022/07/24 10:47:01;;;;;;;1.20;1.10;;;24.00;99.90;;;;;;5002288;28;20507;-49
2022/07/24 10:49:49;;;;;;;0.93;0.93;;;24.30;99.90;;;;;;5002936;28;20895;-49
2022/07/24 10:52:28;;;;;;;1.20;1.10;;;24.40;99.90;;;;;;5004399;28;20488;-48
2022/07/24 10:55:19;;;;;;;1.13;1.03;;;24.50;99.90;;;;;;5002409;28;20471;-49
2022/07/24 10:57:48;;;;;;;1.17;1.10;;;24.50;99.90;;;;;;5004347;28;20456;-49
2022/07/24 11:00:27;;;;;;;1.40;1.00;;;24.50;99.90;;;;;;5002609;28;20483;-49
2022/07/24 11:03:00;;;;;;;2.33;1.33;;;24.60;99.90;;;;;;5005964;28;20463;-49
2022/07/24 11:05:29;;;;;;;1.50;1.40;;;24.70;99.90;;;;;;5002187;28;20459;-49
2022/07/24 11:08:29;;;;;;;0.90;0.90;;;24.90;99.90;;;;;;5006073;28;20451;-49
2022/07/24 11:10:59;;;;;;;1.20;1.20;;;24.90;99.90;;;;;;5008354;28;20483;-48
2022/07/24 11:13:46;;;;;;;12.10;1.50;;;25.00;99.90;;;;;;5009138;28;20462;-49
2022/07/24 11:16:21;;;;;;;1.53;1.00;;;25.10;99.90;;;;;;5008381;28;20472;-49
2022/07/24 11:19:28;;;;;;;4.30;1.27;;;25.20;99.90;;;;;;5010107;28;20455;-50
2022/07/24 11:22:37;;;;;;;2.63;1.03;;;25.10;99.90;;;;;;4997126;28;20468;-50
2022/07/24 11:25:09;;;;;;;1.33;1.10;;;25.30;99.90;;;;;;5004095;28;20485;-49
2022/07/24 11:27:58;;;;;;;1.50;1.40;;;25.40;99.90;;;;;;5001991;28;20533;-50
2022/07/24 11:30:26;;;;;;;1.07;1.00;;;25.40;99.90;;;;;;5001852;28;20479;-49
2022/07/24 11:32:55;;;;;;;1.50;1.40;;;25.20;99.90;;;;;;5009794;28;20448;-49
2022/07/24 11:35:29;;;;;;;2.40;1.33;;;25.30;99.90;;;;;;5008604;28;20472;-52
2022/07/24 11:37:56;;;;;;;1.60;1.00;;;25.40;99.90;;;;;;5008408;28;21030;-49
2022/07/24 11:40:23;;;;;;;1.40;1.20;;;25.40;99.90;;;;;;5006848;28;20476;-49
2022/07/24 11:42:55;;;;;;;4.70;1.30;;;25.60;99.90;;;;;;5004487;28;20491;-50
2022/07/24 11:45:22;;;;;;;1.30;0.83;;;25.50;99.90;;;;;;4999898;28;20451;-49
2022/07/24 11:47:48;;;;;;;1.30;1.20;;;25.60;99.90;;;;;;4998967;28;20464;-49
2022/07/24 11:50:21;;;;;;;1.73;1.17;;;25.60;99.90;;;;;;5007063;28;20516;-49
2022/07/24 11:52:48;;;;;;;3.33;1.50;;;25.70;99.90;;;;;;5004741;28;20874;-49
2022/07/24 11:55:17;;;;;;;1.60;1.50;;;25.70;99.90;;;;;;5005193;28;20619;-49
2022/07/24 11:57:45;;;;;;;6.37;1.23;;;25.70;99.90;;;;;;4999266;28;20466;-49
2022/07/24 12:00:14;;;;;;;1.60;1.50;;;25.80;99.90;;;;;;5002142;28;20617;-50
2022/07/24 12:02:45;;;;;;;2.63;1.37;;;25.80;99.90;;;;;;5002876;28;20467;-49
2022/07/24 12:05:12;;;;;;;1.70;1.60;;;25.50;99.90;;;;;;5009508;28;20451;-50
2022/07/24 12:07:40;;;;;;;0.97;0.97;;;25.80;99.90;;;;;;5011598;28;20463;-50
2022/07/24 12:10:08;;;;;;;1.50;1.40;;;25.90;99.90;;;;;;5012180;28;20534;-49
2022/07/24 12:12:36;;;;;;;9.23;2.33;;;26.10;99.90;;;;;;5009310;28;20948;-50
2022/07/24 12:15:05;;;;;;;1.23;1.13;;;26.10;99.90;;;;;;5009216;28;20495;-50
2022/07/24 12:17:33;;;;;;;1.23;1.23;;;26.20;99.90;;;;;;5003379;28;20494;-51
2022/07/24 12:20:02;;;;;;;1.83;1.27;;;26.30;99.90;;;;;;5011755;28;20514;-50
2022/07/24 12:22:29;;;;;;;1.67;1.40;;;26.30;99.90;;;;;;5011505;28;20933;-50
2022/07/24 12:24:58;;;;;;;2.93;1.23;;;26.40;99.90;;;;;;5013828;28;20451;-51
2022/07/24 12:27:40;;;;;;;1.23;1.13;;;26.40;99.90;;;;;;5012108;28;20456;-50
2022/07/24 12:30:22;;;;;;;1.07;1.07;;;26.50;99.90;;;;;;5011009;28;20479;-50
2022/07/24 12:32:56;;;;;;;2.37;1.13;;;26.40;99.90;;;;;;5007248;28;20530;-54
2022/07/24 12:35:24;;;;;;;1.47;1.10;;;26.60;99.90;;;;;;5009140;28;20478;-54
2022/07/24 12:37:51;;;;;;;1.90;1.37;;;26.60;99.90;;;;;;5007232;28;20486;-54
2022/07/24 12:40:31;;;;;;;3.23;1.10;;;26.50;99.90;;;;;;5012879;28;20534;-53
2022/07/24 12:43:01;;;;;;;1.90;1.40;;;26.50;99.90;;;;;;5008769;28;20470;-53
2022/07/24 12:45:28;;;;;;;1.83;1.33;;;26.60;99.90;;;;;;5012993;28;20460;-53
2022/07/24 12:48:16;;;;;;;1.50;1.40;;;26.60;99.90;;;;;;5009300;28;20521;-53
2022/07/24 12:50:59;;;;;;;1.47;1.37;;;26.60;99.90;;;;;;5013406;28;20496;-53
2022/07/24 12:53:28;;;;;;;2.13;1.23;;;26.80;99.90;;;;;;5012853;28;20471;-52